sensor_id;sensor_type;location;lat;lon;timestamp;pressure;altitude;pressure_sealevel;temperature;humidity
59419;BME280;45224;50.904;6.038;2023-11-19T00:00:02;99247.19;;;11.23;100.00
59419;BME280;45224;50.904;6.038;2023-11-19T00:01:38;99242.84;;;11.23;100.00
59419;BME280;45224;50.904;6.038;2023-11-19T00:03:08;99236.88;;;11.18;100.00
59419;BME280;45224;50.904;6.038;2023-11-19T00:04:41;99246.34;;;11.21;100.00
59419;BME280;45224;50.904;6.038;2023-11-19T00:06:11;99242.03;;;11.20;100.00
59419;BME280;45224;50.904;6.038;2023-11-19T00:07:42;99236.00;;;11.21;100.00
59419;BME280;45224;50.904;6.038;2023-11-19T00:09:12;99240.31;;;11.19;100.00
59419;BME280;45224;50.904;6.038;2023-11-19T00:10:43;99249.81;;;11.18;100.00
59419;BME280;45224;50.904;6.038;2023-11-19T00:12:13;99248.06;;;11.20;100.00
59419;BME280;45224;50.904;6.038;2023-11-19T00:13:44;99243.84;;;11.11;100.00
59419;BME280;45224;50.904;6.038;2023-11-19T00:15:17;99245.59;;;11.09;100.00
59419;BME280;45224;50.904;6.038;2023-11-19T00:16:48;99243.84;;;11.11;100.00
59419;BME280;45224;50.904;6.038;2023-11-19T00:18:21;99254.22;;;11.08;100.00
59419;BME280;45224;50.904;6.038;2023-11-19T00:19:52;99243.84;;;11.11;100.00
59419;BME280;45224;50.904;6.038;2023-11-19T00:21:22;99240.31;;;11.17;100.00
59419;BME280;45224;50.904;6.038;2023-11-19T00:22:53;99246.41;;;11.13;100.00
59419;BME280;45224;50.904;6.038;2023-11-19T00:24:23;99245.47;;;11.19;100.00
59419;BME280;45224;50.904;6.038;2023-11-19T00:25:54;99241.97;;;11.26;100.00
59419;BME280;45224;50.904;6.038;2023-11-19T00:27:25;99239.38;;;11.27;100.00
59419;BME280;45224;50.904;6.038;2023-11-19T00:28:56;99230.72;;;11.27;100.00
59419;BME280;45224;50.904;6.038;2023-11-19T00:30:26;99241.94;;;11.29;100.00
59419;BME280;45224;50.904;6.038;2023-11-19T00:31:57;99249.66;;;11.32;100.00
59419;BME280;45224;50.904;6.038;2023-11-19T00:33:28;99247.13;;;11.29;100.00
59419;BME280;45224;50.904;6.038;2023-11-19T00:34:59;99243.63;;;11.30;100.00
59419;BME280;45224;50.904;6.038;2023-11-19T00:36:30;99248.88;;;11.24;100.00
59419;BME280;45224;50.904;6.038;2023-11-19T00:38:00;99252.31;;;11.27;100.00
59419;BME280;45224;50.904;6.038;2023-11-19T00:39:31;99238.44;;;11.30;100.00
59419;BME280;45224;50.904;6.038;2023-11-19T00:41:01;99236.63;;;11.38;100.00
59419;BME280;45224;50.904;6.038;2023-11-19T00:42:32;99234.88;;;11.43;100.00
59419;BME280;45224;50.904;6.038;2023-11-19T00:44:03;99248.75;;;11.36;100.00
59419;BME280;45224;50.904;6.038;2023-11-19T00:45:33;99228.06;;;11.33;100.00
59419;BME280;45224;50.904;6.038;2023-11-19T00:47:04;99245.28;;;11.37;100.00
59419;BME280;45224;50.904;6.038;2023-11-19T00:48:35;99232.31;;;11.39;100.00
59419;BME280;45224;50.904;6.038;2023-11-19T00:50:07;99230.56;;;11.41;100.00
59419;BME280;45224;50.904;6.038;2023-11-19T00:51:39;99232.22;;;11.46;100.00
59419;BME280;45224;50.904;6.038;2023-11-19T00:53:10;99233.88;;;11.52;100.00
59419;BME280;45224;50.904;6.038;2023-11-19T00:54:40;99229.59;;;11.48;100.00
59419;BME280;45224;50.904;6.038;2023-11-19T00:56:11;99231.38;;;11.44;100.00
59419;BME280;45224;50.904;6.038;2023-11-19T00:57:42;99229.63;;;11.46;100.00
59419;BME280;45224;50.904;6.038;2023-11-19T00:59:13;99214.09;;;11.46;100.00
59419;BME280;45224;50.904;6.038;2023-11-19T01:00:44;99221.03;;;11.44;100.00
59419;BME280;45224;50.904;6.038;2023-11-19T01:02:15;99225.34;;;11.44;100.00
59419;BME280;45224;50.904;6.038;2023-11-19T01:03:45;99221.00;;;11.47;100.00
59419;BME280;45224;50.904;6.038;2023-11-19T01:05:16;99217.50;;;11.51;100.00
59419;BME280;45224;50.904;6.038;2023-11-19T01:06:46;99208.81;;;11.54;100.00
59419;BME280;45224;50.904;6.038;2023-11-19T01:08:17;99214.00;;;11.52;100.00
59419;BME280;45224;50.904;6.038;2023-11-19T01:09:47;99207.97;;;11.54;100.00
59419;BME280;45224;50.904;6.038;2023-11-19T01:11:21;99218.31;;;11.55;100.00
59419;BME280;45224;50.904;6.038;2023-11-19T01:12:52;99219.94;;;11.61;100.00
59419;BME280;45224;50.904;6.038;2023-11-19T01:14:22;99225.97;;;11.63;100.00
59419;BME280;45224;50.904;6.038;2023-11-19T01:15:53;99213.03;;;11.64;100.00
59419;BME280;45224;50.904;6.038;2023-11-19T01:17:23;99210.47;;;11.60;100.00
59419;BME280;45224;50.904;6.038;2023-11-19T01:18:54;99215.69;;;11.57;100.00
59419;BME280;45224;50.904;6.038;2023-11-19T01:20:24;99215.69;;;11.58;100.00
59419;BME280;45224;50.904;6.038;2023-11-19T01:21:56;99231.19;;;11.60;100.00
59419;BME280;45224;50.904;6.038;2023-11-19T01:23:27;99226.88;;;11.60;100.00
59419;BME280;45224;50.904;6.038;2023-11-19T01:24:58;99227.75;;;11.58;100.00
59419;BME280;45224;50.904;6.038;2023-11-19T01:26:29;99241.53;;;11.61;100.00
59419;BME280;45224;50.904;6.038;2023-11-19T01:27:59;99240.72;;;11.56;100.00
59419;BME280;45224;50.904;6.038;2023-11-19T01:29:30;99235.47;;;11.61;100.00
59419;BME280;45224;50.904;6.038;2023-11-19T01:31:00;99220.75;;;11.66;100.00
59419;BME280;45224;50.904;6.038;2023-11-19T01:32:30;99233.59;;;11.72;100.00
59419;BME280;45224;50.904;6.038;2023-11-19T01:34:01;99225.03;;;11.68;100.00
59419;BME280;45224;50.904;6.038;2023-11-19T01:35:31;99221.53;;;11.73;100.00
59419;BME280;45224;50.904;6.038;2023-11-19T01:37:02;99212.88;;;11.74;100.00
59419;BME280;45224;50.904;6.038;2023-11-19T01:38:32;99219.78;;;11.73;100.00
59419;BME280;45224;50.904;6.038;2023-11-19T01:40:03;99218.94;;;11.74;100.00
59419;BME280;45224;50.904;6.038;2023-11-19T01:41:38;99220.63;;;11.75;100.00
59419;BME280;45224;50.904;6.038;2023-11-19T01:43:09;99229.28;;;11.74;100.00
59419;BME280;45224;50.904;6.038;2023-11-19T01:44:41;99230.94;;;11.78;100.00
59419;BME280;45224;50.904;6.038;2023-11-19T01:46:12;99229.13;;;11.83;100.00
59419;BME280;45224;50.904;6.038;2023-11-19T01:47:43;99238.59;;;11.87;100.00
59419;BME280;45224;50.904;6.038;2023-11-19T01:49:15;99229.94;;;11.88;100.00
59419;BME280;45224;50.904;6.038;2023-11-19T01:50:48;99227.41;;;11.85;100.00
59419;BME280;45224;50.904;6.038;2023-11-19T01:52:19;99220.53;;;11.81;100.00
59419;BME280;45224;50.904;6.038;2023-11-19T01:53:50;99206.72;;;11.82;100.00
59419;BME280;45224;50.904;6.038;2023-11-19T01:55:21;99200.59;;;11.86;100.00
59419;BME280;45224;50.904;6.038;2023-11-19T01:56:53;99187.66;;;11.85;100.00
59419;BME280;45224;50.904;6.038;2023-11-19T01:58:27;99195.47;;;11.83;100.00
59419;BME280;45224;50.904;6.038;2023-11-19T02:00:00;99191.19;;;11.81;100.00
59419;BME280;45224;50.904;6.038;2023-11-19T02:01:31;99191.81;;;12.01;100.00
59419;BME280;45224;50.904;6.038;2023-11-19T02:03:06;99180.59;;;11.98;100.00
59419;BME280;45224;50.904;6.038;2023-11-19T02:04:38;99177.16;;;11.99;100.00
59419;BME280;45224;50.904;6.038;2023-11-19T02:06:09;99179.72;;;12.00;100.00
59419;BME280;45224;50.904;6.038;2023-11-19T02:07:40;99172.84;;;11.98;100.00
59419;BME280;45224;50.904;6.038;2023-11-19T02:09:11;99184.81;;;12.05;100.00
59419;BME280;45224;50.904;6.038;2023-11-19T02:10:41;99191.88;;;11.97;100.00
59419;BME280;45224;50.904;6.038;2023-11-19T02:12:13;99181.47;;;11.98;100.00
59419;BME280;45224;50.904;6.038;2023-11-19T02:13:44;99189.22;;;12.00;100.00
59419;BME280;45224;50.904;6.038;2023-11-19T02:15:14;99195.22;;;12.03;100.00
59419;BME280;45224;50.904;6.038;2023-11-19T02:16:45;99186.69;;;11.97;100.00
59419;BME280;45224;50.904;6.038;2023-11-19T02:18:27;99192.72;;;11.96;100.00
59419;BME280;45224;50.904;6.038;2023-11-19T02:19:58;99193.63;;;11.93;100.00
59419;BME280;45224;50.904;6.038;2023-11-19T02:21:31;99189.31;;;11.94;100.00
59419;BME280;45224;50.904;6.038;2023-11-19T02:23:02;99193.72;;;11.87;100.00
59419;BME280;45224;50.904;6.038;2023-11-19T02:24:32;99193.78;;;11.82;100.00
59419;BME280;45224;50.904;6.038;2023-11-19T02:26:23;99187.66;;;11.86;100.00
59419;BME280;45224;50.904;6.038;2023-11-19T02:27:59;99179.91;;;11.83;100.00
59419;BME280;45224;50.904;6.038;2023-11-19T02:29:30;99179.91;;;11.85;100.00
59419;BME280;45224;50.904;6.038;2023-11-19T02:31:01;99193.00;;;11.77;100.00
59419;BME280;45224;50.904;6.038;2023-11-19T02:32:31;99191.19;;;11.82;100.00
59419;BME280;45224;50.904;6.038;2023-11-19T02:34:02;99194.59;;;11.84;100.00
59419;BME280;45224;50.904;6.038;2023-11-19T02:35:32;99188.50;;;11.88;100.00
59419;BME280;45224;50.904;6.038;2023-11-19T02:37:03;99187.56;;;11.96;100.00
59419;BME280;45224;50.904;6.038;2023-11-19T02:38:36;99187.66;;;11.86;100.00
59419;BME280;45224;50.904;6.038;2023-11-19T02:40:06;99184.25;;;11.83;100.00
59419;BME280;45224;50.904;6.038;2023-11-19T02:41:39;99182.47;;;11.86;100.00
59419;BME280;45224;50.904;6.038;2023-11-19T02:43:09;99186.75;;;11.92;100.00
59419;BME280;45224;50.904;6.038;2023-11-19T02:44:44;99191.91;;;11.91;100.00
59419;BME280;45224;50.904;6.038;2023-11-19T02:46:14;99192.75;;;11.91;100.00
59419;BME280;45224;50.904;6.038;2023-11-19T02:47:47;99184.13;;;11.94;100.00
59419;BME280;45224;50.904;6.038;2023-11-19T02:49:18;99195.34;;;11.94;100.00
59419;BME280;45224;50.904;6.038;2023-11-19T02:50:48;99183.25;;;11.93;100.00
59419;BME280;45224;50.904;6.038;2023-11-19T02:52:18;99176.28;;;11.98;100.00
59419;BME280;45224;50.904;6.038;2023-11-19T02:53:49;99172.84;;;11.96;100.00
59419;BME280;45224;50.904;6.038;2023-11-19T02:55:19;99169.41;;;11.97;100.00
59419;BME280;45224;50.904;6.038;2023-11-19T02:56:50;99164.16;;;12.02;100.00
59419;BME280;45224;50.904;6.038;2023-11-19T02:58:25;99171.09;;;12.00;100.00
59419;BME280;45224;50.904;6.038;2023-11-19T02:59:58;99161.69;;;11.90;100.00
59419;BME280;45224;50.904;6.038;2023-11-19T03:01:29;99159.22;;;11.82;100.00
59419;BME280;45224;50.904;6.038;2023-11-19T03:03:00;99157.44;;;11.87;100.00
59419;BME280;45224;50.904;6.038;2023-11-19T03:04:35;99166.00;;;11.94;100.00
59419;BME280;45224;50.904;6.038;2023-11-19T03:06:06;99162.63;;;11.87;100.00
59419;BME280;45224;50.904;6.038;2023-11-19T03:07:37;99163.44;;;11.91;100.00
59419;BME280;45224;50.904;6.038;2023-11-19T03:09:07;99159.97;;;11.92;100.00
59419;BME280;45224;50.904;6.038;2023-11-19T03:10:40;99168.59;;;11.94;100.00
59419;BME280;45224;50.904;6.038;2023-11-19T03:12:11;99180.59;;;11.98;100.00
59419;BME280;45224;50.904;6.038;2023-11-19T03:13:41;99172.81;;;11.99;100.00
59419;BME280;45224;50.904;6.038;2023-11-19T03:15:12;99172.75;;;12.04;100.00
59419;BME280;45224;50.904;6.038;2023-11-19T03:16:45;99182.22;;;12.07;100.00
59419;BME280;45224;50.904;6.038;2023-11-19T03:18:16;99171.06;;;12.01;100.00
59419;BME280;45224;50.904;6.038;2023-11-19T03:19:47;99186.53;;;12.06;100.00
59419;BME280;45224;50.904;6.038;2023-11-19T03:21:18;99183.03;;;12.09;100.00
59419;BME280;45224;50.904;6.038;2023-11-19T03:22:49;99179.59;;;12.08;100.00
59419;BME280;45224;50.904;6.038;2023-11-19T03:24:21;99177.00;;;12.08;100.00
59419;BME280;45224;50.904;6.038;2023-11-19T03:25:51;99173.50;;;12.11;100.00
59419;BME280;45224;50.904;6.038;2023-11-19T03:27:22;99173.50;;;12.09;100.00
59419;BME280;45224;50.904;6.038;2023-11-19T03:28:52;99163.19;;;12.06;100.00
59419;BME280;45224;50.904;6.038;2023-11-19T03:30:23;99157.97;;;12.09;100.00
59419;BME280;45224;50.904;6.038;2023-11-19T03:31:53;99159.69;;;12.10;100.00
59419;BME280;45224;50.904;6.038;2023-11-19T03:33:24;99172.69;;;12.07;100.00
59419;BME280;45224;50.904;6.038;2023-11-19T03:34:56;99174.44;;;12.07;100.00
59419;BME280;45224;50.904;6.038;2023-11-19T03:36:32;99171.88;;;12.05;100.00
59419;BME280;45224;50.904;6.038;2023-11-19T03:38:03;99177.06;;;12.05;100.00
59419;BME280;45224;50.904;6.038;2023-11-19T03:39:33;99183.94;;;12.06;100.00
59419;BME280;45224;50.904;6.038;2023-11-19T03:41:13;99188.25;;;12.07;100.00
59419;BME280;45224;50.904;6.038;2023-11-19T03:42:45;99197.78;;;12.05;100.00
59419;BME280;45224;50.904;6.038;2023-11-19T03:44:16;99188.31;;;12.02;100.00
59419;BME280;45224;50.904;6.038;2023-11-19T03:45:46;99183.97;;;12.03;100.00
59419;BME280;45224;50.904;6.038;2023-11-19T03:47:18;99189.09;;;12.06;100.00
59419;BME280;45224;50.904;6.038;2023-11-19T03:48:49;99179.63;;;12.07;100.00
59419;BME280;45224;50.904;6.038;2023-11-19T03:50:20;99175.34;;;12.04;100.00
59419;BME280;45224;50.904;6.038;2023-11-19T03:51:50;99180.50;;;12.04;100.00
59419;BME280;45224;50.904;6.038;2023-11-19T03:53:21;99176.19;;;12.04;100.00
59419;BME280;45224;50.904;6.038;2023-11-19T03:54:52;99173.69;;;12.00;100.00
59419;BME280;45224;50.904;6.038;2023-11-19T03:56:22;99177.91;;;12.04;100.00
59419;BME280;45224;50.904;6.038;2023-11-19T03:57:53;99183.19;;;11.98;100.00
59419;BME280;45224;50.904;6.038;2023-11-19T03:59:23;99186.53;;;12.04;100.00
59419;BME280;45224;50.904;6.038;2023-11-19T04:00:53;99182.25;;;12.05;100.00
59419;BME280;45224;50.904;6.038;2023-11-19T04:02:24;99173.72;;;11.98;100.00
59419;BME280;45224;50.904;6.038;2023-11-19T04:03:57;99173.72;;;11.97;100.00
59419;BME280;45224;50.904;6.038;2023-11-19T04:05:29;99184.84;;;12.03;100.00
59419;BME280;45224;50.904;6.038;2023-11-19T04:07:00;99175.28;;;12.07;100.00
59419;BME280;45224;50.904;6.038;2023-11-19T04:08:31;99183.94;;;12.06;100.00
59419;BME280;45224;50.904;6.038;2023-11-19T04:10:01;99189.94;;;12.10;100.00
59419;BME280;45224;50.904;6.038;2023-11-19T04:11:32;99178.75;;;12.06;100.00
59419;BME280;45224;50.904;6.038;2023-11-19T04:13:03;99183.09;;;12.05;100.00
59419;BME280;45224;50.904;6.038;2023-11-19T04:14:33;99189.22;;;12.00;100.00
59419;BME280;45224;50.904;6.038;2023-11-19T04:16:04;99186.66;;;11.98;100.00
59419;BME280;45224;50.904;6.038;2023-11-19T04:17:34;99183.34;;;11.87;100.00
59419;BME280;45224;50.904;6.038;2023-11-19T04:19:05;99173.88;;;11.84;100.00
59419;BME280;45224;50.904;6.038;2023-11-19T04:20:36;99192.88;;;11.83;100.00
59419;BME280;45224;50.904;6.038;2023-11-19T04:22:07;99182.47;;;11.86;100.00
59419;BME280;45224;50.904;6.038;2023-11-19T04:23:39;99188.59;;;11.81;100.00
59419;BME280;45224;50.904;6.038;2023-11-19T04:25:09;99191.97;;;11.86;100.00
59419;BME280;45224;50.904;6.038;2023-11-19T04:26:41;99192.19;;;11.70;100.00
59419;BME280;45224;50.904;6.038;2023-11-19T04:28:15;99188.91;;;11.59;100.00
59419;BME280;45224;50.904;6.038;2023-11-19T04:29:45;99196.63;;;11.62;100.00
59419;BME280;45224;50.904;6.038;2023-11-19T04:31:17;99195.78;;;11.62;100.00
59419;BME280;45224;50.904;6.038;2023-11-19T04:32:47;99196.63;;;11.61;100.00
59419;BME280;45224;50.904;6.038;2023-11-19T04:34:20;99192.41;;;11.55;100.00
59419;BME280;45224;50.904;6.038;2023-11-19T04:35:51;99198.53;;;11.48;100.00
59419;BME280;45224;50.904;6.038;2023-11-19T04:37:21;99199.41;;;11.50;100.00
59419;BME280;45224;50.904;6.038;2023-11-19T04:38:52;99206.28;;;11.49;100.00
59419;BME280;45224;50.904;6.038;2023-11-19T04:40:22;99204.53;;;11.53;100.00
59419;BME280;45224;50.904;6.038;2023-11-19T04:41:53;99207.06;;;11.56;100.00
59419;BME280;45224;50.904;6.038;2023-11-19T04:43:23;99205.41;;;11.50;100.00
59419;BME280;45224;50.904;6.038;2023-11-19T04:44:54;99203.66;;;11.52;100.00
59419;BME280;45224;50.904;6.038;2023-11-19T04:46:24;99210.56;;;11.54;100.00
59419;BME280;45224;50.904;6.038;2023-11-19T04:47:54;99208.88;;;11.49;100.00
59419;BME280;45224;50.904;6.038;2023-11-19T04:49:25;99207.22;;;11.45;100.00
59419;BME280;45224;50.904;6.038;2023-11-19T04:50:57;99214.94;;;11.50;100.00
59419;BME280;45224;50.904;6.038;2023-11-19T04:52:28;99203.66;;;11.52;100.00
59419;BME280;45224;50.904;6.038;2023-11-19T04:53:58;99206.22;;;11.56;100.00
59419;BME280;45224;50.904;6.038;2023-11-19T04:55:29;99214.88;;;11.55;100.00
59419;BME280;45224;50.904;6.038;2023-11-19T04:56:59;99212.28;;;11.55;100.00
59419;BME280;45224;50.904;6.038;2023-11-19T04:58:29;99213.19;;;11.50;100.00
59419;BME280;45224;50.904;6.038;2023-11-19T05:00:00;99209.72;;;11.53;100.00
59419;BME280;45224;50.904;6.038;2023-11-19T05:01:32;99213.31;;;11.40;100.00
59419;BME280;45224;50.904;6.038;2023-11-19T05:03:03;99214.09;;;11.46;100.00
59419;BME280;45224;50.904;6.038;2023-11-19T05:04:34;99222.88;;;11.33;100.00
59419;BME280;45224;50.904;6.038;2023-11-19T05:06:05;99216.75;;;11.42;100.00
59419;BME280;45224;50.904;6.038;2023-11-19T05:07:36;99215.84;;;11.44;100.00
59419;BME280;45224;50.904;6.038;2023-11-19T05:09:06;99215.97;;;11.35;100.00
59419;BME280;45224;50.904;6.038;2023-11-19T05:10:42;99212.41;;;11.45;100.00
59419;BME280;45224;50.904;6.038;2023-11-19T05:12:12;99217.59;;;11.42;100.00
59419;BME280;45224;50.904;6.038;2023-11-19T05:13:43;99220.28;;;11.35;100.00
59419;BME280;45224;50.904;6.038;2023-11-19T05:15:15;99217.72;;;11.33;100.00
59419;BME280;45224;50.904;6.038;2023-11-19T05:16:47;99221.19;;;11.32;100.00
59419;BME280;45224;50.904;6.038;2023-11-19T05:18:18;99220.34;;;11.28;100.00
59419;BME280;45224;50.904;6.038;2023-11-19T05:19:48;99231.59;;;11.29;100.00
59419;BME280;45224;50.904;6.038;2023-11-19T05:21:19;99224.66;;;11.31;100.00
59419;BME280;45224;50.904;6.038;2023-11-19T05:22:49;99227.25;;;11.31;100.00
59419;BME280;45224;50.904;6.038;2023-11-19T05:24:21;99235.84;;;11.31;100.00
59419;BME280;45224;50.904;6.038;2023-11-19T05:25:52;99239.41;;;11.23;100.00
59419;BME280;45224;50.904;6.038;2023-11-19T05:27:22;99248.84;;;11.27;100.00
59419;BME280;45224;50.904;6.038;2023-11-19T05:28:54;99246.19;;;11.31;100.00
59419;BME280;45224;50.904;6.038;2023-11-19T05:30:24;99244.41;;;11.35;100.00
59419;BME280;45224;50.904;6.038;2023-11-19T05:31:54;99240.09;;;11.37;100.00
59419;BME280;45224;50.904;6.038;2023-11-19T05:33:25;99238.41;;;11.33;100.00
59419;BME280;45224;50.904;6.038;2023-11-19T05:34:56;99245.31;;;11.36;100.00
59419;BME280;45224;50.904;6.038;2023-11-19T05:36:27;99244.41;;;11.35;100.00
59419;BME280;45224;50.904;6.038;2023-11-19T05:37:59;99242.66;;;11.42;100.00
59419;BME280;45224;50.904;6.038;2023-11-19T05:39:29;99239.16;;;11.43;100.00
59419;BME280;45224;50.904;6.038;2023-11-19T05:41:00;99241.75;;;11.43;100.00
59419;BME280;45224;50.904;6.038;2023-11-19T05:42:30;99242.78;;;11.29;100.00
59419;BME280;45224;50.904;6.038;2023-11-19T05:44:00;99250.50;;;11.34;100.00
59419;BME280;45224;50.904;6.038;2023-11-19T05:45:31;99253.84;;;11.42;100.00
59419;BME280;45224;50.904;6.038;2023-11-19T05:47:02;99249.56;;;11.40;100.00
59419;BME280;45224;50.904;6.038;2023-11-19T05:48:33;99248.72;;;11.39;100.00
59419;BME280;45224;50.904;6.038;2023-11-19T05:50:04;99248.72;;;11.39;100.00
59419;BME280;45224;50.904;6.038;2023-11-19T05:51:39;99249.47;;;11.47;100.00
59419;BME280;45224;50.904;6.038;2023-11-19T05:53:10;99259.88;;;11.43;100.00
59419;BME280;45224;50.904;6.038;2023-11-19T05:54:40;99252.91;;;11.48;100.00
59419;BME280;45224;50.904;6.038;2023-11-19T05:56:12;99251.22;;;11.47;100.00
59419;BME280;45224;50.904;6.038;2023-11-19T05:57:42;99260.75;;;11.43;100.00
59419;BME280;45224;50.904;6.038;2023-11-19T05:59:13;99251.19;;;11.48;100.00
59419;BME280;45224;50.904;6.038;2023-11-19T06:00:46;99252.97;;;11.43;100.00
59419;BME280;45224;50.904;6.038;2023-11-19T06:02:17;99253.84;;;11.42;100.00
59419;BME280;45224;50.904;6.038;2023-11-19T06:03:47;99244.31;;;11.44;100.00
59419;BME280;45224;50.904;6.038;2023-11-19T06:05:20;99251.13;;;11.53;100.00
59419;BME280;45224;50.904;6.038;2023-11-19T06:06:50;99258.16;;;11.43;100.00
59419;BME280;45224;50.904;6.038;2023-11-19T06:08:21;99252.19;;;11.35;100.00
59419;BME280;45224;50.904;6.038;2023-11-19T06:09:51;99255.63;;;11.37;100.00
59419;BME280;45224;50.904;6.038;2023-11-19T06:11:22;99252.13;;;11.41;100.00
59419;BME280;45224;50.904;6.038;2023-11-19T06:12:52;99257.25;;;11.44;100.00
59419;BME280;45224;50.904;6.038;2023-11-19T06:14:26;99255.59;;;11.40;100.00
59419;BME280;45224;50.904;6.038;2023-11-19T06:15:56;99260.88;;;11.31;100.00
59419;BME280;45224;50.904;6.038;2023-11-19T06:17:27;99256.47;;;11.38;100.00
59419;BME280;45224;50.904;6.038;2023-11-19T06:18:57;99248.72;;;11.39;100.00
59419;BME280;45224;50.904;6.038;2023-11-19T06:20:28;99250.47;;;11.36;100.00
59419;BME280;45224;50.904;6.038;2023-11-19T06:21:59;99252.13;;;11.41;100.00
59419;BME280;45224;50.904;6.038;2023-11-19T06:23:30;99241.81;;;11.38;100.00
59419;BME280;45224;50.904;6.038;2023-11-19T06:25:00;99239.19;;;11.40;100.00
59419;BME280;45224;50.904;6.038;2023-11-19T06:26:31;99257.31;;;11.40;100.00
59419;BME280;45224;50.904;6.038;2023-11-19T06:28:01;99253.88;;;11.39;100.00
59419;BME280;45224;50.904;6.038;2023-11-19T06:29:32;99241.00;;;11.35;100.00
59419;BME280;45224;50.904;6.038;2023-11-19T06:31:03;99238.44;;;11.31;100.00
59419;BME280;45224;50.904;6.038;2023-11-19T06:32:34;99236.78;;;11.26;100.00
59419;BME280;45224;50.904;6.038;2023-11-19T06:34:04;99254.03;;;11.24;100.00
59419;BME280;45224;50.904;6.038;2023-11-19T06:35:35;99250.53;;;11.31;100.00
59419;BME280;45224;50.904;6.038;2023-11-19T06:37:08;99254.19;;;11.11;100.00
59419;BME280;45224;50.904;6.038;2023-11-19T06:38:39;99248.03;;;11.22;100.00
59419;BME280;45224;50.904;6.038;2023-11-19T06:40:10;99259.28;;;11.21;100.00
59419;BME280;45224;50.904;6.038;2023-11-19T06:41:45;99255.84;;;11.17;100.00
59419;BME280;45224;50.904;6.038;2023-11-19T06:43:16;99260.22;;;11.12;100.00
59419;BME280;45224;50.904;6.038;2023-11-19T06:44:48;99248.13;;;11.14;100.00
59419;BME280;45224;50.904;6.038;2023-11-19T06:46:18;99255.88;;;11.15;100.00
59419;BME280;45224;50.904;6.038;2023-11-19T06:47:49;99256.78;;;11.13;100.00
59419;BME280;45224;50.904;6.038;2023-11-19T06:49:19;99251.63;;;11.10;100.00
59419;BME280;45224;50.904;6.038;2023-11-19T06:50:50;99256.00;;;11.03;100.00
59419;BME280;45224;50.904;6.038;2023-11-19T06:52:20;99249.03;;;11.11;100.00
59419;BME280;45224;50.904;6.038;2023-11-19T06:53:51;99256.00;;;11.03;100.00
59419;BME280;45224;50.904;6.038;2023-11-19T06:55:21;99261.31;;;10.88;100.00
59419;BME280;45224;50.904;6.038;2023-11-19T06:56:52;99248.31;;;10.95;100.00
59419;BME280;45224;50.904;6.038;2023-11-19T06:58:22;99246.59;;;10.96;100.00
59419;BME280;45224;50.904;6.038;2023-11-19T06:59:53;99248.25;;;11.03;100.00
59419;BME280;45224;50.904;6.038;2023-11-19T07:01:23;99250.88;;;11.00;100.00
59419;BME280;45224;50.904;6.038;2023-11-19T07:02:54;99240.53;;;11.00;100.00
59419;BME280;45224;50.904;6.038;2023-11-19T07:04:24;99246.59;;;10.96;100.00
59419;BME280;45224;50.904;6.038;2023-11-19T07:05:54;99246.63;;;10.91;100.00
59419;BME280;45224;50.904;6.038;2023-11-19T07:07:26;99258.69;;;10.92;100.00
59419;BME280;45224;50.904;6.038;2023-11-19T07:08:56;99257.88;;;10.90;100.00
59419;BME280;45224;50.904;6.038;2023-11-19T07:10:28;99257.88;;;10.89;100.00
59419;BME280;45224;50.904;6.038;2023-11-19T07:11:59;99259.56;;;10.90;100.00
59419;BME280;45224;50.904;6.038;2023-11-19T07:13:31;99272.56;;;10.87;100.00
59419;BME280;45224;50.904;6.038;2023-11-19T07:15:02;99279.44;;;10.86;100.00
59419;BME280;45224;50.904;6.038;2023-11-19T07:16:34;99267.31;;;10.91;100.00
59419;BME280;45224;50.904;6.038;2023-11-19T07:18:04;99263.84;;;10.97;100.00
59419;BME280;45224;50.904;6.038;2023-11-19T07:19:35;99275.00;;;10.99;100.00
59419;BME280;45224;50.904;6.038;2023-11-19T07:21:06;99280.19;;;10.99;100.00
59419;BME280;45224;50.904;6.038;2023-11-19T07:22:45;99279.31;;;11.00;100.00
59419;BME280;45224;50.904;6.038;2023-11-19T07:24:16;99273.38;;;10.92;100.00
59419;BME280;45224;50.904;6.038;2023-11-19T07:25:47;99284.50;;;11.00;100.00
59419;BME280;45224;50.904;6.038;2023-11-19T07:27:17;99287.09;;;11.00;100.00
59419;BME280;45224;50.904;6.038;2023-11-19T07:28:49;99285.38;;;10.96;100.00
59419;BME280;45224;50.904;6.038;2023-11-19T07:30:19;99281.16;;;10.90;100.00
59419;BME280;45224;50.904;6.038;2023-11-19T07:31:50;99286.25;;;10.98;100.00
59419;BME280;45224;50.904;6.038;2023-11-19T07:33:21;99308.72;;;10.88;100.00
59419;BME280;45224;50.904;6.038;2023-11-19T07:34:51;99295.75;;;10.91;100.00
59419;BME280;45224;50.904;6.038;2023-11-19T07:36:22;99292.31;;;10.94;100.00
59419;BME280;45224;50.904;6.038;2023-11-19T07:37:52;99301.81;;;10.92;100.00
59419;BME280;45224;50.904;6.038;2023-11-19T07:39:23;99301.09;;;10.77;100.00
59419;BME280;45224;50.904;6.038;2023-11-19T07:40:53;99297.47;;;10.94;100.00
59419;BME280;45224;50.904;6.038;2023-11-19T07:42:24;99298.41;;;10.87;100.00
59419;BME280;45224;50.904;6.038;2023-11-19T07:43:54;99308.78;;;10.85;100.00
59419;BME280;45224;50.904;6.038;2023-11-19T07:45:25;99301.84;;;10.89;100.00
59419;BME280;45224;50.904;6.038;2023-11-19T07:46:57;99304.50;;;10.80;100.00
59419;BME280;45224;50.904;6.038;2023-11-19T07:48:28;99306.13;;;10.88;100.00
59419;BME280;45224;50.904;6.038;2023-11-19T07:49:59;99307.91;;;10.85;100.00
59419;BME280;45224;50.904;6.038;2023-11-19T07:51:29;99304.44;;;10.86;100.00
59419;BME280;45224;50.904;6.038;2023-11-19T07:53:00;99312.19;;;10.89;100.00
59419;BME280;45224;50.904;6.038;2023-11-19T07:54:30;99305.25;;;10.91;100.00
59419;BME280;45224;50.904;6.038;2023-11-19T07:56:01;99319.91;;;10.92;100.00